< < Back
Terminal Aerodrome Forecast


Current Version              Previous Versions:   1  2  3  4  5  6  7  8  9  

Terminal Aerodrome Forecast

208
FTUS42 KTAE 181120
TAFDHN
TAF
KDHN 181120Z 1812/1912 VRB03KT 1/4SM FG VV001
      TEMPO 1812/1814 3SM BR SCT004
     FM181400 25006KT P6SM OVC015
     FM181900 24007KT P6SM VCTS OVC050CB
      TEMPO 1819/1823 2SM BR SCT025 OVC050
     FM190000 19005KT 6SM RA OVC050=



Latest METAR

939
SAUS70 KWBC 181600 RRJ
MTRDHN
METAR KDHN 181553Z 00000KT 10SM FEW006 SCT011 OVC018 20/18 A3004 RMK AO2
SLP168 T02000178


USA.gov is the U.S. government's official web portal to all federal, state and local government web resources and services.